sensor_id;sensor_type;location;lat;lon;timestamp;P1;durP1;ratioP1;P2;durP2;ratioP2
43857;SDS011;29507;51.284;5.758;2023-03-26T00:01:42;14.30;;;2.75;;
43857;SDS011;29507;51.284;5.758;2023-03-26T00:04:10;14.73;;;3.00;;
43857;SDS011;29507;51.284;5.758;2023-03-26T00:06:36;18.23;;;2.47;;
43857;SDS011;29507;51.284;5.758;2023-03-26T00:09:04;14.63;;;3.28;;
43857;SDS011;29507;51.284;5.758;2023-03-26T00:11:31;24.35;;;3.08;;
43857;SDS011;29507;51.284;5.758;2023-03-26T00:13:57;13.95;;;2.75;;
43857;SDS011;29507;51.284;5.758;2023-03-26T00:16:24;17.52;;;2.17;;
43857;SDS011;29507;51.284;5.758;2023-03-26T00:18:52;20.13;;;2.13;;
43857;SDS011;29507;51.284;5.758;2023-03-26T00:21:19;22.92;;;3.38;;
43857;SDS011;29507;51.284;5.758;2023-03-26T00:23:46;11.98;;;3.03;;
43857;SDS011;29507;51.284;5.758;2023-03-26T00:26:13;17.52;;;2.75;;
43857;SDS011;29507;51.284;5.758;2023-03-26T00:28:40;16.00;;;2.83;;
43857;SDS011;29507;51.284;5.758;2023-03-26T00:31:08;17.25;;;2.70;;
43857;SDS011;29507;51.284;5.758;2023-03-26T00:33:36;15.98;;;2.70;;
43857;SDS011;29507;51.284;5.758;2023-03-26T00:36:05;13.57;;;2.20;;
43857;SDS011;29507;51.284;5.758;2023-03-26T00:38:33;21.55;;;2.85;;
43857;SDS011;29507;51.284;5.758;2023-03-26T00:41:02;16.08;;;2.33;;
43857;SDS011;29507;51.284;5.758;2023-03-26T00:43:31;18.50;;;3.58;;
43857;SDS011;29507;51.284;5.758;2023-03-26T00:45:58;9.90;;;1.77;;
43857;SDS011;29507;51.284;5.758;2023-03-26T00:48:23;18.05;;;3.13;;
43857;SDS011;29507;51.284;5.758;2023-03-26T00:50:51;10.13;;;2.65;;
43857;SDS011;29507;51.284;5.758;2023-03-26T00:53:17;19.13;;;3.13;;
43857;SDS011;29507;51.284;5.758;2023-03-26T00:55:44;16.48;;;2.13;;
43857;SDS011;29507;51.284;5.758;2023-03-26T00:58:12;15.93;;;2.08;;
43857;SDS011;29507;51.284;5.758;2023-03-26T01:00:41;13.57;;;2.25;;
43857;SDS011;29507;51.284;5.758;2023-03-26T01:03:11;29.00;;;2.83;;
43857;SDS011;29507;51.284;5.758;2023-03-26T01:05:43;16.97;;;2.90;;
43857;SDS011;29507;51.284;5.758;2023-03-26T01:08:38;19.88;;;2.45;;
43857;SDS011;29507;51.284;5.758;2023-03-26T01:11:08;16.52;;;2.38;;
43857;SDS011;29507;51.284;5.758;2023-03-26T01:13:39;17.27;;;2.40;;
43857;SDS011;29507;51.284;5.758;2023-03-26T01:16:08;16.95;;;3.20;;
43857;SDS011;29507;51.284;5.758;2023-03-26T01:18:44;25.08;;;3.65;;
43857;SDS011;29507;51.284;5.758;2023-03-26T01:21:12;15.23;;;2.17;;
43857;SDS011;29507;51.284;5.758;2023-03-26T01:23:47;17.02;;;2.42;;
43857;SDS011;29507;51.284;5.758;2023-03-26T01:26:30;22.02;;;3.00;;
43857;SDS011;29507;51.284;5.758;2023-03-26T01:29:02;18.33;;;3.17;;
43857;SDS011;29507;51.284;5.758;2023-03-26T01:31:35;16.23;;;2.28;;
43857;SDS011;29507;51.284;5.758;2023-03-26T01:34:23;19.00;;;3.08;;
43857;SDS011;29507;51.284;5.758;2023-03-26T01:37:11;14.10;;;2.30;;
43857;SDS011;29507;51.284;5.758;2023-03-26T01:39:49;14.60;;;2.50;;
43857;SDS011;29507;51.284;5.758;2023-03-26T01:42:24;19.08;;;2.42;;
43857;SDS011;29507;51.284;5.758;2023-03-26T01:45:02;14.45;;;2.00;;
43857;SDS011;29507;51.284;5.758;2023-03-26T01:47:45;18.48;;;2.22;;
43857;SDS011;29507;51.284;5.758;2023-03-26T01:50:12;23.23;;;3.00;;
43857;SDS011;29507;51.284;5.758;2023-03-26T01:52:38;18.70;;;3.20;;
43857;SDS011;29507;51.284;5.758;2023-03-26T01:55:03;24.38;;;3.30;;
43857;SDS011;29507;51.284;5.758;2023-03-26T02:05:52;19.85;;;2.97;;
43857;SDS011;29507;51.284;5.758;2023-03-26T02:08:23;16.98;;;2.70;;
43857;SDS011;29507;51.284;5.758;2023-03-26T02:11:00;12.82;;;2.38;;
43857;SDS011;29507;51.284;5.758;2023-03-26T02:13:34;21.60;;;2.55;;
43857;SDS011;29507;51.284;5.758;2023-03-26T02:16:01;14.20;;;3.28;;
43857;SDS011;29507;51.284;5.758;2023-03-26T02:18:29;20.90;;;4.28;;
43857;SDS011;29507;51.284;5.758;2023-03-26T02:21:08;16.23;;;2.15;;
43857;SDS011;29507;51.284;5.758;2023-03-26T02:23:46;19.52;;;2.20;;
43857;SDS011;29507;51.284;5.758;2023-03-26T02:26:21;16.20;;;3.28;;
43857;SDS011;29507;51.284;5.758;2023-03-26T02:28:48;15.43;;;2.00;;
43857;SDS011;29507;51.284;5.758;2023-03-26T02:31:14;14.38;;;2.60;;
43857;SDS011;29507;51.284;5.758;2023-03-26T02:33:41;23.65;;;2.35;;
43857;SDS011;29507;51.284;5.758;2023-03-26T02:36:08;16.02;;;2.80;;
43857;SDS011;29507;51.284;5.758;2023-03-26T02:41:04;18.35;;;2.33;;
43857;SDS011;29507;51.284;5.758;2023-03-26T02:43:30;18.92;;;2.70;;
43857;SDS011;29507;51.284;5.758;2023-03-26T02:45:55;21.67;;;3.13;;
43857;SDS011;29507;51.284;5.758;2023-03-26T02:48:21;19.13;;;2.10;;
43857;SDS011;29507;51.284;5.758;2023-03-26T02:50:47;14.93;;;2.67;;
43857;SDS011;29507;51.284;5.758;2023-03-26T02:53:18;11.98;;;2.60;;
43857;SDS011;29507;51.284;5.758;2023-03-26T02:55:45;16.73;;;2.72;;
43857;SDS011;29507;51.284;5.758;2023-03-26T02:58:11;19.05;;;2.70;;
43857;SDS011;29507;51.284;5.758;2023-03-26T03:00:44;15.50;;;2.83;;
43857;SDS011;29507;51.284;5.758;2023-03-26T03:03:10;16.10;;;2.72;;
43857;SDS011;29507;51.284;5.758;2023-03-26T03:05:37;11.82;;;2.22;;
43857;SDS011;29507;51.284;5.758;2023-03-26T03:08:03;13.15;;;2.33;;
43857;SDS011;29507;51.284;5.758;2023-03-26T03:10:29;19.48;;;2.58;;
43857;SDS011;29507;51.284;5.758;2023-03-26T03:12:57;20.33;;;3.08;;
43857;SDS011;29507;51.284;5.758;2023-03-26T03:15:23;18.48;;;2.33;;
43857;SDS011;29507;51.284;5.758;2023-03-26T03:17:49;14.60;;;2.25;;
43857;SDS011;29507;51.284;5.758;2023-03-26T03:20:15;11.43;;;2.45;;
43857;SDS011;29507;51.284;5.758;2023-03-26T03:22:41;10.82;;;2.00;;
43857;SDS011;29507;51.284;5.758;2023-03-26T03:25:08;10.70;;;2.28;;
43857;SDS011;29507;51.284;5.758;2023-03-26T03:27:38;12.45;;;1.90;;
43857;SDS011;29507;51.284;5.758;2023-03-26T03:30:05;13.60;;;2.00;;
43857;SDS011;29507;51.284;5.758;2023-03-26T03:32:32;13.98;;;2.13;;
43857;SDS011;29507;51.284;5.758;2023-03-26T03:34:57;14.25;;;2.20;;
43857;SDS011;29507;51.284;5.758;2023-03-26T03:37:23;15.57;;;2.80;;
43857;SDS011;29507;51.284;5.758;2023-03-26T03:39:49;10.88;;;2.00;;
43857;SDS011;29507;51.284;5.758;2023-03-26T03:42:14;16.90;;;2.85;;
43857;SDS011;29507;51.284;5.758;2023-03-26T03:44:40;10.27;;;1.88;;
43857;SDS011;29507;51.284;5.758;2023-03-26T03:47:05;10.77;;;1.63;;
43857;SDS011;29507;51.284;5.758;2023-03-26T03:49:31;7.28;;;1.70;;
43857;SDS011;29507;51.284;5.758;2023-03-26T03:51:57;10.98;;;1.50;;
43857;SDS011;29507;51.284;5.758;2023-03-26T03:54:22;7.75;;;2.08;;
43857;SDS011;29507;51.284;5.758;2023-03-26T03:56:48;9.43;;;1.75;;
43857;SDS011;29507;51.284;5.758;2023-03-26T03:59:14;17.52;;;2.08;;
43857;SDS011;29507;51.284;5.758;2023-03-26T04:01:39;12.13;;;2.05;;
43857;SDS011;29507;51.284;5.758;2023-03-26T04:04:07;12.93;;;2.05;;
43857;SDS011;29507;51.284;5.758;2023-03-26T04:06:33;9.25;;;1.50;;
43857;SDS011;29507;51.284;5.758;2023-03-26T04:08:59;8.65;;;1.85;;
43857;SDS011;29507;51.284;5.758;2023-03-26T04:11:24;7.10;;;1.45;;
43857;SDS011;29507;51.284;5.758;2023-03-26T04:13:50;7.60;;;1.67;;
43857;SDS011;29507;51.284;5.758;2023-03-26T04:16:15;11.32;;;2.10;;
43857;SDS011;29507;51.284;5.758;2023-03-26T04:18:41;11.07;;;1.70;;
43857;SDS011;29507;51.284;5.758;2023-03-26T04:21:09;12.85;;;2.25;;
43857;SDS011;29507;51.284;5.758;2023-03-26T04:23:36;13.23;;;1.80;;
43857;SDS011;29507;51.284;5.758;2023-03-26T04:26:03;8.00;;;1.30;;
43857;SDS011;29507;51.284;5.758;2023-03-26T04:28:44;4.82;;;1.27;;
43857;SDS011;29507;51.284;5.758;2023-03-26T04:31:13;9.82;;;1.20;;
43857;SDS011;29507;51.284;5.758;2023-03-26T04:33:42;10.82;;;1.60;;
43857;SDS011;29507;51.284;5.758;2023-03-26T04:36:13;8.98;;;1.95;;
43857;SDS011;29507;51.284;5.758;2023-03-26T04:38:44;12.73;;;1.63;;
43857;SDS011;29507;51.284;5.758;2023-03-26T04:41:13;8.98;;;1.48;;
43857;SDS011;29507;51.284;5.758;2023-03-26T04:43:39;6.88;;;1.35;;
43857;SDS011;29507;51.284;5.758;2023-03-26T04:46:11;11.95;;;2.65;;
43857;SDS011;29507;51.284;5.758;2023-03-26T04:48:42;7.18;;;1.60;;
43857;SDS011;29507;51.284;5.758;2023-03-26T04:51:09;9.40;;;1.65;;
43857;SDS011;29507;51.284;5.758;2023-03-26T04:53:42;7.28;;;1.60;;
43857;SDS011;29507;51.284;5.758;2023-03-26T04:58:56;17.67;;;2.72;;
43857;SDS011;29507;51.284;5.758;2023-03-26T05:01:23;10.80;;;1.63;;
43857;SDS011;29507;51.284;5.758;2023-03-26T05:03:52;9.00;;;2.07;;
43857;SDS011;29507;51.284;5.758;2023-03-26T05:06:18;10.80;;;2.13;;
43857;SDS011;29507;51.284;5.758;2023-03-26T05:08:45;4.78;;;1.60;;
43857;SDS011;29507;51.284;5.758;2023-03-26T05:11:11;10.40;;;1.70;;
43857;SDS011;29507;51.284;5.758;2023-03-26T05:13:37;12.55;;;2.85;;
43857;SDS011;29507;51.284;5.758;2023-03-26T05:16:03;13.20;;;2.17;;
43857;SDS011;29507;51.284;5.758;2023-03-26T05:18:29;7.97;;;1.20;;
43857;SDS011;29507;51.284;5.758;2023-03-26T05:20:56;7.55;;;1.80;;
43857;SDS011;29507;51.284;5.758;2023-03-26T05:23:21;12.35;;;1.73;;
43857;SDS011;29507;51.284;5.758;2023-03-26T05:25:47;9.55;;;2.10;;
43857;SDS011;29507;51.284;5.758;2023-03-26T05:28:13;8.15;;;2.22;;
43857;SDS011;29507;51.284;5.758;2023-03-26T05:30:38;12.38;;;2.20;;
43857;SDS011;29507;51.284;5.758;2023-03-26T05:33:07;10.23;;;1.98;;
43857;SDS011;29507;51.284;5.758;2023-03-26T05:35:33;8.93;;;2.10;;
43857;SDS011;29507;51.284;5.758;2023-03-26T05:37:58;7.70;;;2.00;;
43857;SDS011;29507;51.284;5.758;2023-03-26T05:40:24;12.40;;;1.83;;
43857;SDS011;29507;51.284;5.758;2023-03-26T05:42:50;10.77;;;2.20;;
43857;SDS011;29507;51.284;5.758;2023-03-26T05:45:15;10.23;;;2.40;;
43857;SDS011;29507;51.284;5.758;2023-03-26T05:47:41;7.13;;;1.80;;
43857;SDS011;29507;51.284;5.758;2023-03-26T05:50:07;12.80;;;2.42;;
43857;SDS011;29507;51.284;5.758;2023-03-26T05:52:34;14.23;;;2.10;;
43857;SDS011;29507;51.284;5.758;2023-03-26T05:55:00;9.55;;;1.63;;
43857;SDS011;29507;51.284;5.758;2023-03-26T05:57:27;13.45;;;1.75;;
43857;SDS011;29507;51.284;5.758;2023-03-26T05:59:54;7.93;;;1.43;;
43857;SDS011;29507;51.284;5.758;2023-03-26T06:02:20;12.60;;;2.15;;
43857;SDS011;29507;51.284;5.758;2023-03-26T06:04:47;8.18;;;2.05;;
43857;SDS011;29507;51.284;5.758;2023-03-26T06:07:12;11.57;;;1.70;;
43857;SDS011;29507;51.284;5.758;2023-03-26T06:09:38;11.07;;;2.20;;
43857;SDS011;29507;51.284;5.758;2023-03-26T06:12:04;8.25;;;1.52;;
43857;SDS011;29507;51.284;5.758;2023-03-26T06:14:30;13.15;;;1.83;;
43857;SDS011;29507;51.284;5.758;2023-03-26T06:16:56;8.45;;;2.10;;
43857;SDS011;29507;51.284;5.758;2023-03-26T06:19:22;7.70;;;1.85;;
43857;SDS011;29507;51.284;5.758;2023-03-26T06:21:47;7.55;;;1.27;;
43857;SDS011;29507;51.284;5.758;2023-03-26T06:24:13;11.02;;;2.45;;
43857;SDS011;29507;51.284;5.758;2023-03-26T06:26:40;13.13;;;2.28;;
43857;SDS011;29507;51.284;5.758;2023-03-26T06:29:06;11.35;;;1.80;;
43857;SDS011;29507;51.284;5.758;2023-03-26T06:31:32;12.82;;;2.13;;
43857;SDS011;29507;51.284;5.758;2023-03-26T06:33:58;12.52;;;1.70;;
43857;SDS011;29507;51.284;5.758;2023-03-26T06:36:23;7.30;;;1.67;;
43857;SDS011;29507;51.284;5.758;2023-03-26T06:38:49;8.40;;;1.52;;
43857;SDS011;29507;51.284;5.758;2023-03-26T06:41:14;5.65;;;1.50;;
43857;SDS011;29507;51.284;5.758;2023-03-26T06:43:40;13.77;;;1.73;;
43857;SDS011;29507;51.284;5.758;2023-03-26T06:46:06;9.35;;;2.13;;
43857;SDS011;29507;51.284;5.758;2023-03-26T06:48:31;10.18;;;2.17;;
43857;SDS011;29507;51.284;5.758;2023-03-26T06:50:57;16.38;;;1.90;;
43857;SDS011;29507;51.284;5.758;2023-03-26T06:53:23;7.22;;;1.70;;
43857;SDS011;29507;51.284;5.758;2023-03-26T06:55:48;10.68;;;1.75;;
43857;SDS011;29507;51.284;5.758;2023-03-26T06:58:14;10.95;;;2.35;;
43857;SDS011;29507;51.284;5.758;2023-03-26T07:00:40;13.63;;;2.17;;
43857;SDS011;29507;51.284;5.758;2023-03-26T07:03:06;14.27;;;2.47;;
43857;SDS011;29507;51.284;5.758;2023-03-26T07:05:32;11.52;;;2.10;;
43857;SDS011;29507;51.284;5.758;2023-03-26T07:07:58;10.75;;;1.60;;
43857;SDS011;29507;51.284;5.758;2023-03-26T07:10:23;16.75;;;2.25;;
43857;SDS011;29507;51.284;5.758;2023-03-26T07:12:49;10.95;;;2.10;;
43857;SDS011;29507;51.284;5.758;2023-03-26T07:15:15;13.30;;;1.92;;
43857;SDS011;29507;51.284;5.758;2023-03-26T07:17:41;10.32;;;1.90;;
43857;SDS011;29507;51.284;5.758;2023-03-26T07:20:06;8.88;;;1.67;;
43857;SDS011;29507;51.284;5.758;2023-03-26T07:22:33;13.32;;;2.60;;
43857;SDS011;29507;51.284;5.758;2023-03-26T07:24:59;9.98;;;1.75;;
43857;SDS011;29507;51.284;5.758;2023-03-26T07:30:23;11.43;;;2.17;;
43857;SDS011;29507;51.284;5.758;2023-03-26T07:33:18;12.73;;;1.60;;
43857;SDS011;29507;51.284;5.758;2023-03-26T07:36:03;7.55;;;1.38;;
43857;SDS011;29507;51.284;5.758;2023-03-26T07:49:49;8.25;;;1.80;;
43857;SDS011;29507;51.284;5.758;2023-03-26T07:52:19;10.70;;;1.88;;
43857;SDS011;29507;51.284;5.758;2023-03-26T07:54:45;9.73;;;1.50;;
43857;SDS011;29507;51.284;5.758;2023-03-26T07:57:14;13.52;;;2.20;;
43857;SDS011;29507;51.284;5.758;2023-03-26T08:05:17;11.18;;;1.95;;
43857;SDS011;29507;51.284;5.758;2023-03-26T08:15:51;13.43;;;3.05;;
43857;SDS011;29507;51.284;5.758;2023-03-26T08:18:58;7.97;;;2.50;;
43857;SDS011;29507;51.284;5.758;2023-03-26T08:21:41;12.63;;;2.75;;
43857;SDS011;29507;51.284;5.758;2023-03-26T08:27:05;4.38;;;1.67;;
43857;SDS011;29507;51.284;5.758;2023-03-26T08:29:59;9.88;;;2.28;;
43857;SDS011;29507;51.284;5.758;2023-03-26T08:32:54;11.45;;;1.70;;
43857;SDS011;29507;51.284;5.758;2023-03-26T08:35:25;13.25;;;2.40;;
43857;SDS011;29507;51.284;5.758;2023-03-26T08:37:52;8.35;;;1.70;;
43857;SDS011;29507;51.284;5.758;2023-03-26T08:46:34;9.30;;;1.60;;
43857;SDS011;29507;51.284;5.758;2023-03-26T09:19:34;4.90;;;0.90;;
43857;SDS011;29507;51.284;5.758;2023-03-26T09:30:13;4.93;;;1.13;;
43857;SDS011;29507;51.284;5.758;2023-03-26T10:01:16;2.55;;;0.68;;
43857;SDS011;29507;51.284;5.758;2023-03-26T10:06:42;2.53;;;0.60;;
43857;SDS011;29507;51.284;5.758;2023-03-26T10:11:56;2.30;;;0.55;;
43857;SDS011;29507;51.284;5.758;2023-03-26T10:25:41;7.22;;;1.88;;
43857;SDS011;29507;51.284;5.758;2023-03-26T10:28:13;1.75;;;0.60;;
43857;SDS011;29507;51.284;5.758;2023-03-26T10:39:02;1.33;;;0.50;;
43857;SDS011;29507;51.284;5.758;2023-03-26T10:50:41;1.05;;;0.52;;
43857;SDS011;29507;51.284;5.758;2023-03-26T10:58:56;1.10;;;0.43;;
43857;SDS011;29507;51.284;5.758;2023-03-26T11:03:54;2.15;;;0.50;;
43857;SDS011;29507;51.284;5.758;2023-03-26T11:06:40;3.13;;;0.52;;
43857;SDS011;29507;51.284;5.758;2023-03-26T11:09:24;0.70;;;0.30;;
43857;SDS011;29507;51.284;5.758;2023-03-26T11:15:04;1.33;;;0.60;;
43857;SDS011;29507;51.284;5.758;2023-03-26T11:17:54;2.63;;;0.50;;
43857;SDS011;29507;51.284;5.758;2023-03-26T11:20:40;2.67;;;0.60;;
43857;SDS011;29507;51.284;5.758;2023-03-26T11:28:45;1.85;;;0.52;;
43857;SDS011;29507;51.284;5.758;2023-03-26T11:34:09;1.30;;;0.30;;
43857;SDS011;29507;51.284;5.758;2023-03-26T11:36:42;2.22;;;0.30;;
43857;SDS011;29507;51.284;5.758;2023-03-26T11:39:16;0.80;;;0.35;;
43857;SDS011;29507;51.284;5.758;2023-03-26T11:41:47;0.82;;;0.22;;
43857;SDS011;29507;51.284;5.758;2023-03-26T11:44:18;0.43;;;0.20;;
43857;SDS011;29507;51.284;5.758;2023-03-26T11:46:45;0.45;;;0.20;;
43857;SDS011;29507;51.284;5.758;2023-03-26T11:49:15;2.07;;;0.33;;
43857;SDS011;29507;51.284;5.758;2023-03-26T11:51:45;0.32;;;0.28;;
43857;SDS011;29507;51.284;5.758;2023-03-26T11:54:12;2.20;;;0.30;;
43857;SDS011;29507;51.284;5.758;2023-03-26T11:56:57;0.32;;;0.25;;
43857;SDS011;29507;51.284;5.758;2023-03-26T11:59:37;0.63;;;0.40;;
43857;SDS011;29507;51.284;5.758;2023-03-26T12:04:38;0.93;;;0.30;;
43857;SDS011;29507;51.284;5.758;2023-03-26T12:07:14;0.70;;;0.30;;
43857;SDS011;29507;51.284;5.758;2023-03-26T12:10:06;1.13;;;0.52;;
43857;SDS011;29507;51.284;5.758;2023-03-26T12:12:44;0.65;;;0.28;;
43857;SDS011;29507;51.284;5.758;2023-03-26T12:15:12;1.85;;;0.30;;
43857;SDS011;29507;51.284;5.758;2023-03-26T12:17:43;0.47;;;0.30;;
43857;SDS011;29507;51.284;5.758;2023-03-26T12:22:55;1.42;;;0.57;;
43857;SDS011;29507;51.284;5.758;2023-03-26T12:25:26;1.80;;;0.40;;
43857;SDS011;29507;51.284;5.758;2023-03-26T12:30:33;1.45;;;0.35;;
43857;SDS011;29507;51.284;5.758;2023-03-26T12:33:43;0.68;;;0.30;;
43857;SDS011;29507;51.284;5.758;2023-03-26T12:38:47;1.08;;;0.43;;
43857;SDS011;29507;51.284;5.758;2023-03-26T12:41:14;1.33;;;0.47;;
43857;SDS011;29507;51.284;5.758;2023-03-26T12:43:52;2.20;;;0.47;;
43857;SDS011;29507;51.284;5.758;2023-03-26T12:46:28;1.38;;;0.50;;
43857;SDS011;29507;51.284;5.758;2023-03-26T12:48:57;1.83;;;0.30;;
43857;SDS011;29507;51.284;5.758;2023-03-26T13:00:02;0.57;;;0.40;;
43857;SDS011;29507;51.284;5.758;2023-03-26T13:05:23;1.13;;;0.43;;
43857;SDS011;29507;51.284;5.758;2023-03-26T13:10:58;0.75;;;0.30;;
43857;SDS011;29507;51.284;5.758;2023-03-26T13:16:22;0.93;;;0.40;;
43857;SDS011;29507;51.284;5.758;2023-03-26T13:44:20;3.47;;;1.05;;
43857;SDS011;29507;51.284;5.758;2023-03-26T13:46:45;2.70;;;0.82;;
43857;SDS011;29507;51.284;5.758;2023-03-26T13:49:15;2.22;;;0.80;;
43857;SDS011;29507;51.284;5.758;2023-03-26T13:51:54;2.15;;;0.80;;
43857;SDS011;29507;51.284;5.758;2023-03-26T13:54:45;2.53;;;1.20;;
43857;SDS011;29507;51.284;5.758;2023-03-26T13:57:23;4.32;;;1.45;;
43857;SDS011;29507;51.284;5.758;2023-03-26T14:02:36;2.10;;;1.20;;
43857;SDS011;29507;51.284;5.758;2023-03-26T14:05:14;2.17;;;1.17;;
43857;SDS011;29507;51.284;5.758;2023-03-26T14:08:00;2.10;;;1.20;;
43857;SDS011;29507;51.284;5.758;2023-03-26T14:10:39;3.15;;;1.52;;
43857;SDS011;29507;51.284;5.758;2023-03-26T14:13:15;3.78;;;1.58;;
43857;SDS011;29507;51.284;5.758;2023-03-26T14:15:54;4.63;;;1.60;;
43857;SDS011;29507;51.284;5.758;2023-03-26T14:24:03;5.00;;;2.30;;
43857;SDS011;29507;51.284;5.758;2023-03-26T14:43:25;7.80;;;4.05;;
43857;SDS011;29507;51.284;5.758;2023-03-26T14:48:42;5.22;;;3.55;;
43857;SDS011;29507;51.284;5.758;2023-03-26T14:54:12;6.20;;;4.30;;
43857;SDS011;29507;51.284;5.758;2023-03-26T15:11:58;4.55;;;2.85;;
43857;SDS011;29507;51.284;5.758;2023-03-26T15:45:29;9.65;;;3.40;;
43857;SDS011;29507;51.284;5.758;2023-03-26T15:48:05;12.60;;;3.17;;
43857;SDS011;29507;51.284;5.758;2023-03-26T15:50:40;14.55;;;5.22;;
43857;SDS011;29507;51.284;5.758;2023-03-26T15:58:44;13.13;;;3.53;;
43857;SDS011;29507;51.284;5.758;2023-03-26T16:07:10;17.23;;;3.47;;
43857;SDS011;29507;51.284;5.758;2023-03-26T16:15:38;15.23;;;3.13;;
43857;SDS011;29507;51.284;5.758;2023-03-26T16:20:49;9.00;;;3.13;;
43857;SDS011;29507;51.284;5.758;2023-03-26T16:33:47;11.70;;;3.47;;
43857;SDS011;29507;51.284;5.758;2023-03-26T16:43:59;10.25;;;3.13;;
43857;SDS011;29507;51.284;5.758;2023-03-26T16:47:14;13.75;;;3.50;;
43857;SDS011;29507;51.284;5.758;2023-03-26T16:49:48;13.30;;;3.00;;
43857;SDS011;29507;51.284;5.758;2023-03-26T16:57:56;7.00;;;2.22;;
43857;SDS011;29507;51.284;5.758;2023-03-26T17:06:56;6.18;;;1.50;;
43857;SDS011;29507;51.284;5.758;2023-03-26T17:09:48;11.82;;;2.60;;
43857;SDS011;29507;51.284;5.758;2023-03-26T17:12:28;6.47;;;1.75;;
43857;SDS011;29507;51.284;5.758;2023-03-26T17:18:14;10.63;;;1.67;;
43857;SDS011;29507;51.284;5.758;2023-03-26T17:20:52;11.35;;;2.05;;
43857;SDS011;29507;51.284;5.758;2023-03-26T17:23:33;9.93;;;1.95;;
43857;SDS011;29507;51.284;5.758;2023-03-26T17:26:15;13.68;;;1.90;;
43857;SDS011;29507;51.284;5.758;2023-03-26T17:29:00;12.70;;;2.13;;
43857;SDS011;29507;51.284;5.758;2023-03-26T17:37:10;5.53;;;2.30;;
43857;SDS011;29507;51.284;5.758;2023-03-26T17:42:32;12.90;;;2.42;;
43857;SDS011;29507;51.284;5.758;2023-03-26T17:45:06;11.85;;;1.70;;
43857;SDS011;29507;51.284;5.758;2023-03-26T17:47:39;7.60;;;1.83;;
43857;SDS011;29507;51.284;5.758;2023-03-26T17:50:16;19.48;;;1.83;;
43857;SDS011;29507;51.284;5.758;2023-03-26T17:55:23;10.60;;;2.38;;
43857;SDS011;29507;51.284;5.758;2023-03-26T17:57:59;9.82;;;1.58;;
43857;SDS011;29507;51.284;5.758;2023-03-26T18:00:42;10.20;;;1.70;;
43857;SDS011;29507;51.284;5.758;2023-03-26T18:05:47;7.80;;;1.80;;
43857;SDS011;29507;51.284;5.758;2023-03-26T18:08:28;8.52;;;2.58;;
43857;SDS011;29507;51.284;5.758;2023-03-26T18:16:36;5.00;;;1.50;;
43857;SDS011;29507;51.284;5.758;2023-03-26T18:19:09;10.07;;;2.35;;
43857;SDS011;29507;51.284;5.758;2023-03-26T18:21:43;7.47;;;1.80;;
43857;SDS011;29507;51.284;5.758;2023-03-26T18:24:14;7.65;;;1.63;;
43857;SDS011;29507;51.284;5.758;2023-03-26T18:26:44;6.68;;;1.77;;
43857;SDS011;29507;51.284;5.758;2023-03-26T18:31:52;4.28;;;1.23;;
43857;SDS011;29507;51.284;5.758;2023-03-26T18:34:39;4.85;;;1.40;;
43857;SDS011;29507;51.284;5.758;2023-03-26T18:37:18;9.45;;;1.27;;
43857;SDS011;29507;51.284;5.758;2023-03-26T18:42:37;5.15;;;0.95;;
43857;SDS011;29507;51.284;5.758;2023-03-26T18:45:08;8.27;;;2.00;;
43857;SDS011;29507;51.284;5.758;2023-03-26T18:47:47;4.35;;;1.33;;
43857;SDS011;29507;51.284;5.758;2023-03-26T18:50:17;4.88;;;1.20;;
43857;SDS011;29507;51.284;5.758;2023-03-26T18:52:48;4.65;;;0.90;;
43857;SDS011;29507;51.284;5.758;2023-03-26T18:55:15;5.55;;;1.10;;
43857;SDS011;29507;51.284;5.758;2023-03-26T18:57:41;3.38;;;0.95;;
43857;SDS011;29507;51.284;5.758;2023-03-26T19:00:20;4.88;;;0.98;;
43857;SDS011;29507;51.284;5.758;2023-03-26T19:02:49;4.80;;;1.20;;
43857;SDS011;29507;51.284;5.758;2023-03-26T19:05:22;7.82;;;1.85;;
43857;SDS011;29507;51.284;5.758;2023-03-26T19:07:50;8.07;;;1.80;;
43857;SDS011;29507;51.284;5.758;2023-03-26T19:10:16;4.55;;;0.88;;
43857;SDS011;29507;51.284;5.758;2023-03-26T19:12:45;5.55;;;1.08;;
43857;SDS011;29507;51.284;5.758;2023-03-26T19:15:20;10.02;;;1.98;;
43857;SDS011;29507;51.284;5.758;2023-03-26T19:17:48;11.27;;;1.35;;
43857;SDS011;29507;51.284;5.758;2023-03-26T19:20:21;6.07;;;1.35;;
43857;SDS011;29507;51.284;5.758;2023-03-26T19:22:50;9.02;;;2.20;;
43857;SDS011;29507;51.284;5.758;2023-03-26T19:25:19;11.27;;;1.85;;
43857;SDS011;29507;51.284;5.758;2023-03-26T19:27:51;10.80;;;1.85;;
43857;SDS011;29507;51.284;5.758;2023-03-26T19:30:18;6.65;;;1.52;;
43857;SDS011;29507;51.284;5.758;2023-03-26T19:33:05;7.13;;;0.80;;
43857;SDS011;29507;51.284;5.758;2023-03-26T19:35:39;5.38;;;1.05;;
43857;SDS011;29507;51.284;5.758;2023-03-26T19:41:14;2.13;;;0.85;;
43857;SDS011;29507;51.284;5.758;2023-03-26T19:43:54;6.78;;;2.15;;
43857;SDS011;29507;51.284;5.758;2023-03-26T19:46:23;4.90;;;1.08;;
43857;SDS011;29507;51.284;5.758;2023-03-26T19:48:51;10.07;;;1.35;;
43857;SDS011;29507;51.284;5.758;2023-03-26T19:51:23;5.97;;;1.57;;
43857;SDS011;29507;51.284;5.758;2023-03-26T19:54:00;6.30;;;1.88;;
43857;SDS011;29507;51.284;5.758;2023-03-26T19:56:35;13.25;;;1.90;;
43857;SDS011;29507;51.284;5.758;2023-03-26T19:59:01;4.47;;;0.95;;
43857;SDS011;29507;51.284;5.758;2023-03-26T20:01:28;8.82;;;1.33;;
43857;SDS011;29507;51.284;5.758;2023-03-26T20:03:55;5.28;;;1.02;;
43857;SDS011;29507;51.284;5.758;2023-03-26T20:06:26;5.45;;;1.23;;
43857;SDS011;29507;51.284;5.758;2023-03-26T20:08:55;7.78;;;1.90;;
43857;SDS011;29507;51.284;5.758;2023-03-26T20:11:23;5.05;;;1.25;;
43857;SDS011;29507;51.284;5.758;2023-03-26T20:13:57;7.38;;;2.10;;
43857;SDS011;29507;51.284;5.758;2023-03-26T20:18:51;3.22;;;1.20;;
43857;SDS011;29507;51.284;5.758;2023-03-26T20:21:17;12.32;;;1.70;;
43857;SDS011;29507;51.284;5.758;2023-03-26T20:23:43;9.40;;;1.27;;
43857;SDS011;29507;51.284;5.758;2023-03-26T20:26:10;9.88;;;1.17;;
43857;SDS011;29507;51.284;5.758;2023-03-26T20:28:40;6.18;;;1.10;;
43857;SDS011;29507;51.284;5.758;2023-03-26T20:31:14;6.18;;;0.85;;
43857;SDS011;29507;51.284;5.758;2023-03-26T20:33:41;10.32;;;1.27;;
43857;SDS011;29507;51.284;5.758;2023-03-26T20:36:09;6.15;;;1.15;;
43857;SDS011;29507;51.284;5.758;2023-03-26T20:38:37;5.82;;;1.52;;
43857;SDS011;29507;51.284;5.758;2023-03-26T20:41:04;6.00;;;0.88;;
43857;SDS011;29507;51.284;5.758;2023-03-26T20:43:30;8.85;;;1.75;;
43857;SDS011;29507;51.284;5.758;2023-03-26T20:45:56;4.55;;;0.90;;
43857;SDS011;29507;51.284;5.758;2023-03-26T20:48:22;5.65;;;0.90;;
43857;SDS011;29507;51.284;5.758;2023-03-26T20:50:50;8.15;;;1.00;;
43857;SDS011;29507;51.284;5.758;2023-03-26T20:53:17;6.90;;;0.98;;
43857;SDS011;29507;51.284;5.758;2023-03-26T20:55:44;5.15;;;1.55;;
43857;SDS011;29507;51.284;5.758;2023-03-26T20:58:11;5.60;;;1.27;;
43857;SDS011;29507;51.284;5.758;2023-03-26T21:00:38;9.90;;;1.60;;
43857;SDS011;29507;51.284;5.758;2023-03-26T21:03:06;5.75;;;1.80;;
43857;SDS011;29507;51.284;5.758;2023-03-26T21:05:35;3.00;;;0.75;;
43857;SDS011;29507;51.284;5.758;2023-03-26T21:08:00;3.67;;;0.73;;
43857;SDS011;29507;51.284;5.758;2023-03-26T21:10:26;5.63;;;1.20;;
43857;SDS011;29507;51.284;5.758;2023-03-26T21:12:56;9.57;;;1.40;;
43857;SDS011;29507;51.284;5.758;2023-03-26T21:15:29;2.20;;;0.88;;
43857;SDS011;29507;51.284;5.758;2023-03-26T21:18:10;10.48;;;1.30;;
43857;SDS011;29507;51.284;5.758;2023-03-26T21:20:36;5.40;;;0.82;;
43857;SDS011;29507;51.284;5.758;2023-03-26T21:23:12;9.77;;;1.65;;
43857;SDS011;29507;51.284;5.758;2023-03-26T21:30:59;9.32;;;1.63;;
43857;SDS011;29507;51.284;5.758;2023-03-26T21:33:25;6.10;;;0.85;;